Hope, Alaska
Current Conditions -  °F | °C
As of 7:53 AM on Friday 21 Nov 2014 (Local Time) from PANC Reporting Station
Overcast Overcast  
Wind Chill: 31°   Ceiling: 12000
Heat Index: 35°   Visibility: 10mi
Dew Point: 22°   Wind: 5mph
Humidity: 59%   Direction: 320°NW
Pressure: 28.96"   Gusts: NA
Location:  60.91°N, 149.63°W
Report Text: PANC 211653Z 32004KT 10SM FEW080 BKN120 OVC140 02/M06 A2896 RMK AO2 SLP809 T00171056 $
Loading
Personal Weather Stations






























Interactive Weather Map New forecast layout! Learn more

10-Day Weather Forecast

Advertisements
Track Severe Weather on mobile